首页
METAR-TAF:

METAR-TAF

机场 :

Ivujivik, 魁北克, 加拿大

纬度: 62-25N, 经度: 077-57W, 海拔: 42米

当前天气观测

该预报发布于15小时和33分钟前的20:00 UTC
风速26节,风向,有时为32节阵风
温度 -7°C
湿度 86%
气压 996 hPa
能見度: 1.6公里
阴天层高于1100英尺
高吹雪

METAR: CYIK 172000Z 36026G32KT 1SM BLSN OVC011 M07/M09 A2942 RMK ST8 SN CVR ONE LOOSE LAST STFD OBS/NEXT 181300UTC SLP966

时间: 06:33 (11:33 UTC)

预报

该预报发布于15小时和28分钟前的20:05 UTC
预报有效从17日的 20点(UTC)到 17日的 22点(UTC)
风速25节,风向,有时为35节阵风
能見度: 1.6公里
层高于1200英尺
高吹雪
短暂存在
从 17日的 20点(UTC)到 17日的 22点(UTC)
能見度: 4.8公里
散云层高于1200英尺
阴天层高于2500英尺
小雪, 高吹雪

TAF: CYIK 172005Z 1720/1722 36025G35KT 1SM BLSN VV012 TEMPO 1720/1722 3SM -SN BLSN SCT012 OVC025 RMK NXT FCST WILL BE ISSUED AT 181445Z

超过4000个机场的气象观测和天气预报(METAR&TAF报告)。

可查询的气象台以黄色和红色小点在地图上表示。

将鼠标移到小点上方,可查看气象台名称。

然后点击查看天气观测和预报。

如需切换地图:点击带黑十字的绿色按钮放大地图;点击带横线的绿色按钮缩小地图;或者点击绿色箭头查看邻近地区的地图。


METAR-TAF: